createdAt,value
2019-05-09T00:01:35.691Z,53.00
2019-05-09T00:04:05.581Z,53.00
2019-05-09T00:06:35.344Z,53.00
2019-05-09T00:09:06.059Z,53.10
2019-05-09T00:11:35.793Z,53.00
2019-05-09T00:14:05.605Z,53.00
2019-05-09T00:16:35.328Z,53.00
2019-05-09T00:19:05.131Z,53.00
2019-05-09T00:21:40.005Z,53.10
2019-05-09T00:24:09.736Z,53.00
2019-05-09T00:26:39.480Z,53.00
2019-05-09T00:29:14.427Z,53.00
2019-05-09T00:32:15.091Z,52.70
2019-05-09T00:35:05.792Z,53.10
2019-05-09T00:38:01.265Z,52.90
2019-05-09T00:40:31.041Z,53.00
2019-05-09T00:43:00.784Z,53.00
2019-05-09T00:45:55.129Z,53.00
2019-05-09T00:48:29.372Z,53.00
2019-05-09T00:50:59.101Z,53.00
2019-05-09T00:53:28.933Z,52.90
2019-05-09T00:55:58.625Z,53.10
2019-05-09T00:58:28.429Z,53.00
2019-05-09T01:00:58.250Z,53.20
2019-05-09T01:03:28.063Z,53.60
2019-05-09T01:05:57.943Z,53.60
2019-05-09T01:08:27.681Z,53.00
2019-05-09T01:11:10.998Z,53.00
2019-05-09T01:13:28.740Z,53.00
2019-05-09T01:15:58.422Z,53.00
2019-05-09T01:18:28.162Z,52.90
2019-05-09T01:20:57.853Z,52.90
2019-05-09T01:23:27.561Z,53.00
2019-05-09T01:25:57.293Z,52.90
2019-05-09T01:28:27.106Z,52.90
2019-05-09T01:30:56.812Z,53.00
2019-05-09T01:33:57.723Z,52.90
2019-05-09T01:36:46.291Z,52.90
2019-05-09T01:39:16.327Z,52.90
2019-05-09T01:41:46.140Z,52.90
2019-05-09T01:44:15.948Z,52.90
2019-05-09T01:46:45.880Z,53.50
2019-05-09T01:49:15.673Z,52.90
2019-05-09T01:51:45.388Z,53.00
2019-05-09T01:54:17.087Z,52.90
2019-05-09T01:56:46.960Z,52.90
2019-05-09T01:59:16.588Z,52.90
2019-05-09T02:01:46.296Z,53.00
2019-05-09T02:04:15.996Z,52.90
2019-05-09T02:06:45.919Z,53.00
2019-05-09T02:09:15.834Z,53.30
2019-05-09T02:11:46.413Z,53.00
2019-05-09T02:14:19.552Z,53.00
2019-05-09T02:17:07.212Z,53.00
2019-05-09T02:19:43.816Z,53.00
2019-05-09T02:22:30.531Z,53.00
2019-05-09T02:25:00.257Z,53.00
2019-05-09T02:27:30.072Z,52.90
2019-05-09T02:29:59.793Z,53.00
2019-05-09T02:32:29.491Z,53.40
2019-05-09T02:34:59.690Z,53.00
2019-05-09T02:37:29.493Z,53.00
2019-05-09T02:39:59.422Z,53.00
2019-05-09T02:42:29.169Z,53.00
2019-05-09T02:44:59.568Z,53.00
2019-05-09T02:47:29.489Z,53.00
2019-05-09T02:49:59.316Z,53.00
2019-05-09T02:52:29.149Z,53.70
2019-05-09T02:54:58.926Z,53.10
2019-05-09T02:57:29.556Z,53.00
2019-05-09T03:00:28.816Z,53.00
2019-05-09T03:03:13.013Z,53.00
2019-05-09T03:05:42.836Z,53.00
2019-05-09T03:08:12.637Z,53.00
2019-05-09T03:10:42.299Z,53.10
2019-05-09T03:13:12.052Z,53.00
2019-05-09T03:15:42.387Z,53.00
2019-05-09T03:18:12.166Z,53.00
2019-05-09T03:21:08.985Z,53.10
2019-05-09T03:23:39.050Z,53.00
2019-05-09T03:26:10.546Z,53.00
2019-05-09T03:29:09.000Z,53.10
2019-05-09T03:31:39.736Z,53.00
2019-05-09T03:34:11.249Z,53.10
2019-05-09T03:36:41.012Z,53.00
2019-05-09T03:39:10.807Z,53.00
2019-05-09T03:41:40.508Z,53.00
2019-05-09T03:44:10.235Z,53.10
2019-05-09T03:47:04.952Z,53.70
2019-05-09T03:49:34.728Z,53.10
2019-05-09T03:52:04.437Z,53.00
2019-05-09T03:54:34.149Z,53.10
2019-05-09T03:57:13.200Z,53.10
2019-05-09T03:59:42.988Z,53.00
2019-05-09T04:02:12.696Z,53.00
2019-05-09T04:04:42.408Z,53.00
2019-05-09T04:07:12.244Z,53.10
2019-05-09T04:09:42.033Z,53.00
2019-05-09T04:12:11.740Z,53.00
2019-05-09T04:14:41.554Z,53.00
2019-05-09T04:17:12.701Z,53.50
2019-05-09T04:19:42.412Z,53.30
2019-05-09T04:22:12.236Z,53.60
2019-05-09T04:24:42.142Z,53.00
2019-05-09T04:27:17.784Z,53.10
2019-05-09T04:29:48.383Z,53.00
2019-05-09T04:32:18.368Z,53.00
2019-05-09T04:34:48.316Z,53.00
2019-05-09T04:37:18.217Z,53.00
2019-05-09T04:39:47.892Z,53.00
2019-05-09T04:42:18.539Z,53.10
2019-05-09T04:44:57.310Z,53.10
2019-05-09T04:47:27.678Z,53.60
2019-05-09T04:49:58.384Z,53.20
2019-05-09T04:52:28.227Z,53.50
2019-05-09T04:54:58.028Z,53.50
2019-05-09T04:57:27.934Z,54.10
2019-05-09T04:59:57.775Z,54.10
2019-05-09T05:02:41.758Z,54.10
2019-05-09T05:05:11.668Z,53.70
2019-05-09T05:07:41.557Z,52.70
2019-05-09T05:10:11.369Z,52.20
2019-05-09T05:12:41.145Z,52.00
2019-05-09T05:15:10.916Z,52.30
2019-05-09T05:17:40.726Z,52.40
2019-05-09T05:20:14.111Z,52.40
2019-05-09T05:22:55.193Z,52.50
2019-05-09T05:25:25.060Z,52.60
2019-05-09T05:27:54.968Z,53.00
2019-05-09T05:30:24.759Z,53.20
2019-05-09T05:33:08.136Z,53.30
2019-05-09T05:35:49.230Z,53.60
2019-05-09T05:38:19.690Z,53.70
2019-05-09T05:40:49.872Z,53.60
2019-05-09T05:43:20.103Z,53.70
2019-05-09T05:46:08.749Z,53.60
2019-05-09T05:48:39.751Z,53.40
2019-05-09T05:51:09.588Z,53.50
2019-05-09T05:53:39.415Z,53.50
2019-05-09T05:56:09.196Z,53.50
2019-05-09T05:58:39.169Z,54.00
2019-05-09T06:01:08.927Z,53.30
2019-05-09T06:03:38.810Z,53.20
2019-05-09T06:06:08.951Z,53.30
2019-05-09T06:08:38.800Z,53.20
2019-05-09T06:11:12.105Z,53.20
2019-05-09T06:13:53.302Z,53.10
2019-05-09T06:16:11.705Z,53.00
2019-05-09T06:18:41.503Z,53.00
2019-05-09T06:21:11.476Z,53.00
2019-05-09T06:23:41.474Z,52.90
2019-05-09T06:26:11.261Z,52.90
2019-05-09T06:28:41.165Z,53.00
2019-05-09T06:31:11.030Z,53.00
2019-05-09T06:33:45.948Z,53.00
2019-05-09T06:36:13.915Z,52.90
2019-05-09T06:38:43.771Z,52.90
2019-05-09T06:41:13.468Z,52.90
2019-05-09T06:43:45.109Z,52.80
2019-05-09T06:46:38.675Z,52.70
2019-05-09T06:49:24.233Z,52.60
2019-05-09T06:51:47.617Z,52.60
2019-05-09T06:54:17.510Z,52.60
2019-05-09T06:56:47.647Z,52.50
2019-05-09T06:59:19.094Z,52.50
2019-05-09T07:01:53.037Z,52.50
2019-05-09T07:04:27.796Z,52.40
2019-05-09T07:07:07.786Z,52.40
2019-05-09T07:10:04.050Z,52.30
2019-05-09T07:12:34.040Z,52.50
2019-05-09T07:15:03.865Z,52.60
2019-05-09T07:17:33.670Z,52.50
2019-05-09T07:20:03.478Z,52.80
2019-05-09T07:22:54.247Z,53.00
2019-05-09T07:25:40.507Z,53.20
2019-05-09T07:28:10.516Z,53.50
2019-05-09T07:30:48.071Z,53.40
2019-05-09T07:33:29.112Z,53.50
2019-05-09T07:35:59.184Z,53.70
2019-05-09T07:38:30.201Z,53.70
2019-05-09T07:41:00.719Z,53.70
2019-05-09T07:43:30.668Z,53.80
2019-05-09T07:46:28.970Z,53.80
2019-05-09T07:48:59.656Z,53.80
2019-05-09T07:51:29.468Z,53.90
2019-05-09T07:53:59.274Z,53.90
2019-05-09T07:56:28.999Z,53.90
2019-05-09T07:58:58.934Z,53.90
2019-05-09T08:01:28.745Z,53.90
2019-05-09T08:03:59.188Z,53.90
2019-05-09T08:06:29.907Z,53.90
2019-05-09T08:08:59.829Z,54.00
2019-05-09T08:11:32.298Z,53.90
2019-05-09T08:14:01.336Z,53.90
2019-05-09T08:16:31.288Z,53.90
2019-05-09T08:19:01.004Z,53.90
2019-05-09T08:21:30.819Z,53.80
2019-05-09T08:24:00.503Z,53.80
2019-05-09T08:26:30.607Z,53.80
2019-05-09T08:29:00.796Z,53.80
2019-05-09T08:31:30.487Z,53.90
2019-05-09T08:34:00.269Z,53.90
2019-05-09T08:36:30.128Z,53.90
2019-05-09T08:39:00.045Z,54.00
2019-05-09T08:41:29.806Z,54.00
2019-05-09T08:43:59.643Z,53.90
2019-05-09T08:46:29.975Z,53.90
2019-05-09T08:49:21.540Z,53.90
2019-05-09T08:52:14.915Z,54.00
2019-05-09T08:54:44.548Z,53.90
2019-05-09T08:57:14.594Z,53.90
2019-05-09T08:59:49.706Z,54.00
2019-05-09T09:02:21.879Z,53.90
2019-05-09T09:04:49.211Z,54.00
2019-05-09T09:07:19.270Z,53.90
2019-05-09T09:09:48.979Z,53.90
2019-05-09T09:12:27.264Z,53.80
2019-05-09T09:14:50.358Z,53.90
2019-05-09T09:17:20.532Z,53.90
2019-05-09T09:19:50.477Z,53.90
2019-05-09T09:22:20.332Z,54.00
2019-05-09T09:24:50.206Z,53.90
2019-05-09T09:27:20.068Z,53.90
2019-05-09T09:29:49.973Z,53.90
2019-05-09T09:32:19.677Z,54.00
2019-05-09T09:34:49.386Z,53.90
2019-05-09T09:37:19.224Z,54.00
2019-05-09T09:39:49.110Z,53.90
2019-05-09T09:42:20.242Z,53.90
2019-05-09T09:44:50.035Z,53.80
2019-05-09T09:47:23.260Z,53.90
2019-05-09T09:49:51.580Z,53.80
2019-05-09T09:52:21.313Z,53.90
2019-05-09T09:54:51.079Z,53.80
2019-05-09T09:57:20.883Z,53.80
2019-05-09T09:59:58.348Z,53.80
2019-05-09T10:02:34.295Z,53.90
2019-05-09T10:05:04.099Z,54.00
2019-05-09T10:07:33.942Z,54.10
2019-05-09T10:10:03.619Z,54.20
2019-05-09T10:12:33.482Z,54.20
2019-05-09T10:15:18.941Z,54.30
2019-05-09T10:18:13.356Z,54.20
2019-05-09T10:20:48.497Z,54.20
2019-05-09T10:23:21.436Z,54.40
2019-05-09T10:25:50.031Z,54.40
2019-05-09T10:28:21.321Z,54.60
2019-05-09T10:30:51.404Z,53.80
2019-05-09T10:33:21.157Z,52.80
2019-05-09T10:35:50.994Z,52.30
2019-05-09T10:38:20.786Z,52.70
2019-05-09T10:40:53.291Z,53.20
2019-05-09T10:43:52.780Z,52.70
2019-05-09T10:46:52.414Z,53.10
2019-05-09T10:49:15.724Z,52.40
2019-05-09T10:51:45.503Z,52.30
2019-05-09T10:54:15.355Z,52.10
2019-05-09T10:56:45.314Z,51.90
2019-05-09T10:59:15.192Z,51.70
2019-05-09T11:01:45.122Z,51.80
2019-05-09T11:04:15.025Z,51.80
2019-05-09T11:06:44.808Z,52.20
2019-05-09T11:09:14.557Z,51.40
2019-05-09T11:11:44.377Z,51.40
2019-05-09T11:14:29.632Z,51.30
2019-05-09T11:16:49.120Z,51.10
2019-05-09T11:19:18.399Z,50.90
2019-05-09T11:21:48.274Z,50.80
2019-05-09T11:24:18.763Z,50.70
2019-05-09T11:26:48.839Z,50.80
2019-05-09T11:29:18.898Z,50.80
2019-05-09T11:31:48.877Z,50.70
2019-05-09T11:34:18.979Z,50.50
2019-05-09T11:36:49.834Z,50.50
2019-05-09T11:39:35.242Z,50.00
2019-05-09T11:41:51.143Z,50.90
2019-05-09T11:44:20.899Z,51.60
2019-05-09T11:46:50.835Z,51.80
2019-05-09T11:49:20.631Z,52.10
2019-05-09T11:51:50.330Z,52.30
2019-05-09T11:54:20.035Z,52.40
2019-05-09T11:56:49.779Z,52.60
2019-05-09T11:59:19.499Z,52.70
2019-05-09T12:01:49.173Z,52.60
2019-05-09T12:04:19.000Z,52.70
2019-05-09T12:06:49.463Z,52.80
2019-05-09T12:09:19.239Z,52.70
2019-05-09T12:11:48.942Z,53.40
2019-05-09T12:14:18.712Z,52.80
2019-05-09T12:16:49.416Z,52.80
2019-05-09T12:19:19.089Z,52.90
2019-05-09T12:21:48.787Z,52.90
2019-05-09T12:24:18.696Z,53.00
2019-05-09T12:26:48.449Z,53.00
2019-05-09T12:29:19.639Z,53.10
2019-05-09T12:31:50.568Z,53.00
2019-05-09T12:34:20.265Z,53.00
2019-05-09T12:36:50.107Z,53.10
2019-05-09T12:39:20.066Z,53.20
2019-05-09T12:41:49.762Z,53.10
2019-05-09T12:44:19.571Z,53.10
2019-05-09T12:46:49.339Z,53.20
2019-05-09T12:49:19.288Z,53.30
2019-05-09T12:51:49.166Z,53.20
2019-05-09T12:54:19.514Z,53.20
2019-05-09T12:56:49.272Z,53.20
2019-05-09T12:59:19.061Z,53.20
2019-05-09T13:01:49.422Z,53.20
2019-05-09T13:04:19.408Z,53.30
2019-05-09T13:06:49.193Z,53.30
2019-05-09T13:09:18.926Z,53.30
2019-05-09T13:11:48.628Z,53.20
2019-05-09T13:14:19.317Z,53.20
2019-05-09T13:16:58.614Z,53.10
2019-05-09T13:19:34.253Z,53.10
2019-05-09T13:22:03.948Z,53.10
2019-05-09T13:24:33.961Z,53.10
2019-05-09T13:27:04.338Z,53.10
2019-05-09T13:29:34.104Z,52.60
2019-05-09T13:32:03.811Z,53.10
2019-05-09T13:34:33.543Z,53.10
2019-05-09T13:37:03.279Z,53.10
2019-05-09T13:39:33.033Z,53.10
2019-05-09T13:42:02.755Z,53.10
2019-05-09T13:44:32.465Z,53.70
2019-05-09T13:47:02.343Z,53.10
2019-05-09T13:49:32.092Z,53.10
2019-05-09T13:52:04.817Z,53.10
2019-05-09T13:54:38.250Z,53.10
2019-05-09T13:57:08.760Z,53.00
2019-05-09T13:59:38.830Z,53.10
2019-05-09T14:02:08.520Z,53.00
2019-05-09T14:04:39.566Z,53.00
2019-05-09T14:07:09.669Z,52.90
2019-05-09T14:09:39.448Z,53.00
2019-05-09T14:12:09.476Z,52.90
2019-05-09T14:14:40.456Z,52.90
2019-05-09T14:17:13.783Z,52.80
2019-05-09T14:19:46.358Z,52.80
2019-05-09T14:22:13.064Z,52.70
2019-05-09T14:24:42.705Z,52.60
2019-05-09T14:27:12.493Z,52.60
2019-05-09T14:29:42.653Z,52.60
2019-05-09T14:32:12.316Z,52.70
2019-05-09T14:34:42.726Z,52.60
2019-05-09T14:37:12.601Z,52.80
2019-05-09T14:39:54.879Z,52.80
2019-05-09T14:42:13.780Z,53.10
2019-05-09T14:44:43.419Z,53.20
2019-05-09T14:47:13.166Z,53.10
2019-05-09T14:49:44.595Z,53.10
2019-05-09T14:52:14.465Z,52.90
2019-05-09T14:54:44.390Z,53.00
2019-05-09T14:57:14.254Z,53.10
2019-05-09T14:59:44.111Z,53.20
2019-05-09T15:02:13.944Z,53.20
2019-05-09T15:04:43.806Z,53.20
2019-05-09T15:07:13.634Z,53.30
2019-05-09T15:09:43.447Z,53.30
2019-05-09T15:12:13.632Z,53.30
2019-05-09T15:14:43.756Z,53.40
2019-05-09T15:17:14.149Z,53.40
2019-05-09T15:19:56.398Z,53.40
2019-05-09T15:22:15.574Z,53.40
2019-05-09T15:24:47.643Z,53.40
2019-05-09T15:27:17.723Z,53.50
2019-05-09T15:29:48.656Z,53.50
2019-05-09T15:32:18.687Z,53.50
2019-05-09T15:34:48.672Z,53.60
2019-05-09T15:37:18.829Z,53.70
2019-05-09T15:39:48.960Z,53.60
2019-05-09T15:42:18.748Z,53.60
2019-05-09T15:44:48.572Z,53.70
2019-05-09T15:47:22.838Z,54.30
2019-05-09T15:49:52.591Z,53.70
2019-05-09T15:52:22.455Z,53.70
2019-05-09T15:54:53.447Z,53.80
2019-05-09T15:57:23.204Z,53.70
2019-05-09T15:59:52.963Z,53.80
2019-05-09T16:02:22.830Z,53.80
2019-05-09T16:04:52.615Z,53.80
2019-05-09T16:07:22.460Z,53.80
2019-05-09T16:09:52.350Z,53.80
2019-05-09T16:12:22.180Z,53.80
2019-05-09T16:14:51.964Z,53.80
2019-05-09T16:17:21.757Z,53.70
2019-05-09T16:19:51.627Z,53.70
2019-05-09T16:22:21.347Z,53.70
2019-05-09T16:24:51.145Z,53.70
2019-05-09T16:27:21.156Z,53.70
2019-05-09T16:29:51.051Z,53.60
2019-05-09T16:32:20.821Z,53.50
2019-05-09T16:34:50.799Z,53.50
2019-05-09T16:37:20.515Z,53.60
2019-05-09T16:39:50.472Z,53.50
2019-05-09T16:42:21.113Z,53.50
2019-05-09T16:44:50.974Z,53.50
2019-05-09T16:47:22.261Z,53.50
2019-05-09T16:49:52.206Z,53.40
2019-05-09T16:52:22.036Z,53.50
2019-05-09T16:54:54.302Z,53.50
2019-05-09T16:57:25.051Z,53.50
2019-05-09T16:59:54.862Z,53.60
2019-05-09T17:02:25.230Z,53.70
2019-05-09T17:04:57.568Z,53.70
2019-05-09T17:07:27.790Z,53.80
2019-05-09T17:09:58.299Z,53.80
2019-05-09T17:12:28.407Z,53.70
2019-05-09T17:14:59.767Z,53.80
2019-05-09T17:17:30.150Z,54.30
2019-05-09T17:20:00.204Z,54.70
2019-05-09T17:22:47.525Z,54.50
2019-05-09T17:25:18.701Z,54.50
2019-05-09T17:27:48.708Z,54.70
2019-05-09T17:30:18.786Z,54.90
2019-05-09T17:32:48.592Z,54.80
2019-05-09T17:35:18.606Z,54.80
2019-05-09T17:37:54.112Z,55.10
2019-05-09T17:40:23.911Z,55.00
2019-05-09T17:43:12.891Z,55.20
2019-05-09T17:45:44.130Z,55.50
2019-05-09T17:48:13.913Z,56.20
2019-05-09T17:50:43.767Z,56.30
2019-05-09T17:53:18.032Z,56.20
2019-05-09T17:55:47.903Z,57.30
2019-05-09T17:58:27.279Z,57.80
2019-05-09T18:00:49.453Z,57.90
2019-05-09T18:03:19.171Z,57.00
2019-05-09T18:05:48.960Z,57.20
2019-05-09T18:08:19.061Z,56.00
2019-05-09T18:10:49.332Z,55.30
2019-05-09T18:13:23.856Z,54.70
2019-05-09T18:15:50.515Z,54.80
2019-05-09T18:18:20.352Z,54.80
2019-05-09T18:20:50.209Z,54.70
2019-05-09T18:23:20.076Z,54.40
2019-05-09T18:25:50.765Z,54.20
2019-05-09T18:28:20.785Z,53.90
2019-05-09T18:30:53.974Z,53.80
2019-05-09T18:33:38.004Z,54.00
2019-05-09T18:36:07.937Z,54.60
2019-05-09T18:38:38.756Z,55.00
2019-05-09T18:41:10.444Z,55.40
2019-05-09T18:43:41.000Z,55.50
2019-05-09T18:46:10.974Z,55.60
2019-05-09T18:48:41.223Z,55.70
2019-05-09T18:51:11.002Z,55.80
2019-05-09T18:53:40.797Z,55.90
2019-05-09T18:56:10.609Z,55.90
2019-05-09T18:58:59.529Z,55.90
2019-05-09T19:01:29.521Z,55.90
2019-05-09T19:03:59.553Z,56.00
2019-05-09T19:06:29.300Z,55.90
2019-05-09T19:08:59.531Z,56.10
2019-05-09T19:11:29.368Z,55.90
2019-05-09T19:13:59.790Z,56.00
2019-05-09T19:16:38.448Z,55.90
2019-05-09T19:19:18.160Z,55.90
2019-05-09T19:21:51.713Z,56.00
2019-05-09T19:24:32.024Z,55.90
2019-05-09T19:27:02.101Z,55.80
2019-05-09T19:29:34.683Z,55.80
2019-05-09T19:32:36.469Z,55.70
2019-05-09T19:35:04.157Z,55.80
2019-05-09T19:46:24.630Z,55.70
2019-05-09T19:49:10.448Z,55.70
2019-05-09T19:51:52.571Z,55.80
2019-05-09T19:55:26.741Z,55.70
2019-05-09T19:57:56.400Z,55.70
2019-05-09T20:00:27.205Z,55.90
2019-05-09T20:02:57.018Z,55.60
2019-05-09T20:05:27.328Z,55.80
2019-05-09T20:07:57.035Z,55.70
2019-05-09T20:10:44.662Z,55.70
2019-05-09T20:13:37.077Z,55.80
2019-05-09T20:16:06.754Z,55.80
2019-05-09T20:18:36.440Z,55.80
2019-05-09T20:21:06.210Z,56.50
2019-05-09T20:23:35.893Z,55.90
2019-05-09T20:26:05.671Z,56.60
2019-05-09T20:28:35.404Z,55.80
2019-05-09T20:31:05.190Z,55.90
2019-05-09T20:33:34.864Z,55.80
2019-05-09T20:36:04.567Z,55.80
2019-05-09T20:38:34.531Z,55.90
2019-05-09T20:41:04.468Z,55.90
2019-05-09T20:43:53.428Z,55.80
2019-05-09T20:46:23.347Z,55.80
2019-05-09T20:48:53.210Z,55.80
2019-05-09T20:51:23.178Z,55.80
2019-05-09T20:53:52.995Z,55.80
2019-05-09T20:56:22.908Z,55.80
2019-05-09T20:58:52.893Z,55.80
2019-05-09T21:01:22.847Z,55.80
2019-05-09T21:04:00.239Z,55.80
2019-05-09T21:06:25.124Z,55.80
2019-05-09T21:08:55.141Z,55.80
2019-05-09T21:11:25.056Z,55.70
2019-05-09T21:13:54.981Z,55.70
2019-05-09T21:16:24.892Z,55.70
2019-05-09T21:18:54.844Z,55.70
2019-05-09T21:21:24.816Z,55.70
2019-05-09T21:23:54.730Z,55.70
2019-05-09T21:26:24.577Z,55.60
2019-05-09T21:28:54.560Z,55.60
2019-05-09T21:31:44.392Z,55.60
2019-05-09T21:34:14.363Z,55.50
2019-05-09T21:36:44.111Z,55.50
2019-05-09T21:39:13.912Z,55.50
2019-05-09T21:41:43.621Z,55.60
2019-05-09T21:44:13.296Z,55.60
2019-05-09T21:46:43.046Z,55.60
2019-05-09T21:49:12.716Z,55.60
2019-05-09T21:51:42.688Z,55.60
2019-05-09T21:54:12.444Z,55.50
2019-05-09T21:56:42.185Z,55.70
2019-05-09T21:59:11.862Z,55.60
2019-05-09T22:01:41.677Z,56.20
2019-05-09T22:04:11.540Z,55.60
2019-05-09T22:06:41.953Z,55.60
2019-05-09T22:09:11.865Z,55.60
2019-05-09T22:11:41.577Z,55.60
2019-05-09T22:14:11.391Z,55.60
2019-05-09T22:16:41.213Z,55.60
2019-05-09T22:19:11.025Z,55.70
2019-05-09T22:21:40.728Z,55.60
2019-05-09T22:24:10.433Z,55.70
2019-05-09T22:26:40.156Z,55.60
2019-05-09T22:29:09.948Z,55.60
2019-05-09T22:31:39.768Z,55.60
2019-05-09T22:34:09.687Z,56.10
2019-05-09T22:36:39.386Z,55.50
2019-05-09T22:39:09.104Z,55.40
2019-05-09T22:41:38.844Z,55.50
2019-05-09T22:44:08.636Z,55.40
2019-05-09T22:46:38.553Z,55.20
2019-05-09T22:49:08.350Z,55.30
2019-05-09T22:51:38.062Z,55.30
2019-05-09T22:54:12.896Z,55.30
2019-05-09T22:56:39.134Z,55.30
2019-05-09T22:59:08.826Z,55.30
2019-05-09T23:01:38.503Z,55.30
2019-05-09T23:04:08.251Z,55.40
2019-05-09T23:06:38.207Z,55.40
2019-05-09T23:09:08.277Z,55.40
2019-05-09T23:11:37.992Z,55.40
2019-05-09T23:14:07.701Z,55.90
2019-05-09T23:16:39.709Z,55.30
2019-05-09T23:19:09.373Z,55.30
2019-05-09T23:21:39.188Z,55.30
2019-05-09T23:24:10.714Z,55.40
2019-05-09T23:26:40.452Z,55.40
2019-05-09T23:29:10.169Z,55.40
2019-05-09T23:32:13.839Z,55.40
2019-05-09T23:34:43.541Z,55.40
2019-05-09T23:37:13.436Z,55.40
2019-05-09T23:39:45.319Z,55.30
2019-05-09T23:42:14.979Z,55.30
2019-05-09T23:44:44.775Z,55.30
2019-05-09T23:47:14.704Z,55.30
2019-05-09T23:49:44.616Z,55.40
2019-05-09T23:52:14.315Z,55.30
2019-05-09T23:55:01.444Z,55.40
2019-05-09T23:57:48.785Z,55.20
